createdAt,value
2018-04-17T00:00:10.165Z,14.30
2018-04-17T00:02:37.680Z,14.30
2018-04-17T00:05:05.204Z,14.30
2018-04-17T00:07:32.724Z,14.30
2018-04-17T00:10:01.856Z,14.20
2018-04-17T00:12:29.368Z,14.20
2018-04-17T00:14:57.690Z,14.10
2018-04-17T00:17:25.626Z,14.10
2018-04-17T00:19:53.924Z,14.10
2018-04-17T00:22:21.433Z,14.10
2018-04-17T00:24:48.963Z,14.00
2018-04-17T00:27:16.503Z,13.90
2018-04-17T00:29:44.752Z,13.80
2018-04-17T00:32:13.052Z,13.70
2018-04-17T00:34:40.597Z,13.70
2018-04-17T00:37:09.254Z,13.50
2018-04-17T00:39:36.762Z,13.50
2018-04-17T00:42:04.289Z,13.60
2018-04-17T00:44:33.321Z,13.60
2018-04-17T00:47:01.239Z,13.50
2018-04-17T00:49:28.768Z,13.50
2018-04-17T00:51:56.293Z,13.40
2018-04-17T00:54:24.640Z,13.40
2018-04-17T00:56:52.179Z,13.40
2018-04-17T00:59:20.186Z,13.40
2018-04-17T01:01:49.035Z,13.20
2018-04-17T01:04:16.553Z,13.20
2018-04-17T01:06:44.081Z,13.10
2018-04-17T01:09:11.608Z,13.00
2018-04-17T01:11:39.198Z,13.10
2018-04-17T01:14:06.776Z,13.10
2018-04-17T01:16:35.067Z,12.90
2018-04-17T01:19:03.984Z,12.90
2018-04-17T01:21:31.506Z,12.80
2018-04-17T01:23:59.840Z,12.80
2018-04-17T01:26:27.364Z,12.80
2018-04-17T01:28:54.890Z,12.80
2018-04-17T01:31:22.434Z,12.70
2018-04-17T01:33:50.697Z,12.80
2018-04-17T01:36:18.801Z,12.80
2018-04-17T01:38:46.302Z,12.80
2018-04-17T01:41:13.831Z,12.80
2018-04-17T01:43:46.213Z,12.80
2018-04-17T01:46:15.053Z,12.70
2018-04-17T01:48:42.684Z,12.70
2018-04-17T01:51:10.260Z,12.70
2018-04-17T01:53:37.808Z,12.70
2018-04-17T01:56:06.159Z,12.70
2018-04-17T01:58:34.447Z,12.70
2018-04-17T02:01:01.975Z,12.70
2018-04-17T02:03:29.516Z,12.70
2018-04-17T02:05:57.044Z,12.60
2018-04-17T02:08:28.563Z,12.70
2018-04-17T02:10:56.892Z,12.40
2018-04-17T02:13:24.551Z,12.40
2018-04-17T02:15:52.068Z,12.40
2018-04-17T02:18:21.368Z,12.10
2018-04-17T02:20:49.644Z,12.10
2018-04-17T02:23:17.922Z,12.10
2018-04-17T02:25:46.807Z,12.20
2018-04-17T02:28:15.090Z,12.20
2018-04-17T02:30:43.930Z,12.10
2018-04-17T02:33:11.440Z,12.10
2018-04-17T02:35:39.760Z,12.00
2018-04-17T02:38:07.301Z,11.90
2018-04-17T02:40:34.854Z,11.80
2018-04-17T02:43:02.388Z,11.80
2018-04-17T02:45:30.686Z,11.90
2018-04-17T02:47:58.216Z,11.90
2018-04-17T02:50:25.744Z,12.00
2018-04-17T02:52:53.344Z,12.00
2018-04-17T02:55:21.640Z,11.90
2018-04-17T02:57:49.984Z,12.00
2018-04-17T03:00:17.551Z,12.00
2018-04-17T03:02:45.134Z,11.90
2018-04-17T03:05:13.426Z,11.70
2018-04-17T03:07:41.311Z,11.60
2018-04-17T03:10:08.824Z,11.50
2018-04-17T03:12:37.122Z,11.80
2018-04-17T03:15:04.669Z,11.80
2018-04-17T03:17:32.961Z,11.60
2018-04-17T03:20:00.496Z,11.60
2018-04-17T03:22:28.839Z,11.70
2018-04-17T03:24:56.406Z,11.70
2018-04-17T03:27:23.960Z,11.70
2018-04-17T03:29:51.700Z,11.60
2018-04-17T03:32:19.212Z,11.70
2018-04-17T03:34:46.988Z,11.70
2018-04-17T03:37:15.298Z,11.70
2018-04-17T03:39:42.823Z,11.70
2018-04-17T03:42:11.126Z,11.40
2018-04-17T03:44:38.645Z,11.40
2018-04-17T03:47:06.618Z,11.50
2018-04-17T03:49:34.148Z,11.50
2018-04-17T03:52:02.453Z,11.10
2018-04-17T03:54:29.967Z,11.10
2018-04-17T03:56:57.527Z,11.20
2018-04-17T03:59:25.555Z,11.20
2018-04-17T04:01:53.122Z,11.10
2018-04-17T04:04:25.430Z,11.20
2018-04-17T04:06:52.956Z,11.20
2018-04-17T04:09:21.250Z,10.90
2018-04-17T04:11:48.768Z,10.90
2018-04-17T04:14:16.329Z,11.00
2018-04-17T04:16:55.794Z,11.00
2018-04-17T04:19:36.386Z,11.10
2018-04-17T04:22:15.801Z,11.10
2018-04-17T04:27:47.827Z,11.00
2018-04-17T04:30:15.383Z,11.10
2018-04-17T04:32:42.900Z,11.20
2018-04-17T04:35:11.203Z,11.00
2018-04-17T04:37:38.727Z,11.00
2018-04-17T04:40:07.189Z,11.20
2018-04-17T04:42:34.721Z,11.20
2018-04-17T04:45:02.953Z,11.10
2018-04-17T04:47:31.240Z,11.20
2018-04-17T04:49:59.601Z,11.10
2018-04-17T04:52:28.494Z,11.10
2018-04-17T04:54:56.778Z,11.10
2018-04-17T04:57:25.576Z,11.20
2018-04-17T04:59:53.402Z,11.20
2018-04-17T05:02:20.963Z,11.20
2018-04-17T05:04:48.532Z,11.20
2018-04-17T05:07:16.033Z,11.40
2018-04-17T05:09:43.555Z,11.40
2018-04-17T05:12:11.844Z,11.50
2018-04-17T05:14:40.280Z,11.70
2018-04-17T05:17:07.801Z,11.70
2018-04-17T05:19:36.063Z,11.80
2018-04-17T05:22:04.349Z,11.90
2018-04-17T05:24:32.645Z,11.90
2018-04-17T05:27:00.241Z,11.90
2018-04-17T05:29:27.793Z,11.70
2018-04-17T05:31:55.354Z,11.80
2018-04-17T05:34:22.881Z,12.00
2018-04-17T05:36:50.507Z,12.10
2018-04-17T05:39:22.424Z,12.40
2018-04-17T05:41:53.592Z,12.40
2018-04-17T05:44:21.131Z,12.30
2018-04-17T05:46:48.716Z,12.40
2018-04-17T05:49:16.261Z,12.60
2018-04-17T05:51:43.888Z,12.60
2018-04-17T05:54:11.416Z,12.70
2018-04-17T05:56:39.734Z,12.90
2018-04-17T05:59:07.320Z,12.90
2018-04-17T06:01:35.590Z,13.00
2018-04-17T06:04:03.141Z,13.00
2018-04-17T06:06:30.666Z,13.00
2018-04-17T06:08:59.032Z,12.90
2018-04-17T06:11:27.344Z,12.80
2018-04-17T06:13:55.805Z,12.80
2018-04-17T06:16:24.102Z,13.10
2018-04-17T06:18:51.648Z,13.10
2018-04-17T06:21:19.636Z,13.20
2018-04-17T06:23:47.182Z,13.30
2018-04-17T06:26:14.702Z,13.30
2018-04-17T06:28:43.036Z,13.30
2018-04-17T06:31:10.548Z,13.60
2018-04-17T06:33:38.872Z,13.90
2018-04-17T06:36:06.394Z,13.90
2018-04-17T06:38:34.684Z,14.60
2018-04-17T06:41:02.982Z,14.90
2018-04-17T06:43:30.516Z,14.90
2018-04-17T06:46:02.921Z,14.90
2018-04-17T06:48:30.783Z,14.90
2018-04-17T06:50:58.756Z,14.80
2018-04-17T06:53:26.296Z,14.80
2018-04-17T06:55:53.877Z,14.90
2018-04-17T06:58:21.483Z,15.20
2018-04-17T07:00:49.199Z,15.70
2018-04-17T07:03:16.740Z,16.10
2018-04-17T07:05:44.278Z,15.90
2018-04-17T07:08:12.596Z,15.60
2018-04-17T07:10:40.138Z,15.60
2018-04-17T07:13:07.723Z,15.70
2018-04-17T07:15:35.260Z,15.80
2018-04-17T07:18:02.805Z,16.10
2018-04-17T07:20:31.117Z,16.10
2018-04-17T07:22:58.643Z,16.00
2018-04-17T07:25:26.953Z,16.30
2018-04-17T07:27:54.596Z,16.30
2018-04-17T07:30:22.171Z,16.60
2018-04-17T07:42:35.351Z,16.90
2018-04-17T07:45:02.901Z,17.00
2018-04-17T07:47:30.749Z,17.30
2018-04-17T07:49:58.258Z,17.60
2018-04-17T07:52:25.814Z,17.40
2018-04-17T07:54:53.786Z,17.20
2018-04-17T08:10:21.353Z,16.90
2018-04-17T08:12:49.515Z,18.00
2018-04-17T08:15:17.040Z,18.50
2018-04-17T08:17:45.344Z,19.60
2018-04-17T08:20:12.877Z,19.60
2018-04-17T08:22:41.092Z,20.30
2018-04-17T08:25:08.630Z,20.90
2018-04-17T08:27:36.164Z,21.30
2018-04-17T08:30:09.507Z,21.90
2018-04-17T08:32:37.297Z,21.90
2018-04-17T08:35:04.831Z,21.50
2018-04-17T08:37:32.356Z,21.50
2018-04-17T08:39:59.880Z,22.00
2018-04-17T08:42:27.417Z,21.70
2018-04-17T08:44:54.948Z,21.70
2018-04-17T08:47:23.196Z,21.30
2018-04-17T08:49:52.373Z,21.70
2018-04-17T08:52:20.460Z,21.70
2018-04-17T08:54:48.771Z,22.40
2018-04-17T08:57:16.309Z,22.40
2018-04-17T08:59:44.595Z,23.10
2018-04-17T09:02:12.129Z,23.10
2018-04-17T09:04:40.523Z,23.80
2018-04-17T09:07:08.827Z,23.90
2018-04-17T09:09:36.365Z,23.80
2018-04-17T09:12:04.684Z,25.00
2018-04-17T09:14:32.193Z,25.00
2018-04-17T09:17:00.497Z,25.20
2018-04-17T09:19:28.018Z,25.20
2018-04-17T09:21:55.533Z,25.50
2018-04-17T09:24:23.089Z,25.50
2018-04-17T09:26:50.619Z,25.60
2018-04-17T09:29:18.159Z,26.00
2018-04-17T09:31:46.432Z,27.50
2018-04-17T09:34:13.952Z,27.40
2018-04-17T09:36:41.494Z,27.60
2018-04-17T09:39:09.033Z,27.60
2018-04-17T09:41:36.594Z,27.70
2018-04-17T09:44:04.908Z,27.40
2018-04-17T09:46:32.436Z,27.40
2018-04-17T09:48:59.957Z,27.60
2018-04-17T09:51:28.080Z,26.70
2018-04-17T09:53:55.597Z,26.10
2018-04-17T09:56:23.148Z,25.10
2018-04-17T09:58:50.685Z,25.40
2018-04-17T10:01:21.654Z,25.80
2018-04-17T10:03:49.159Z,25.80
2018-04-17T10:06:16.815Z,26.00
2018-04-17T10:08:44.339Z,26.00
2018-04-17T10:11:12.641Z,24.70
2018-04-17T10:13:40.233Z,24.70
2018-04-17T10:16:08.563Z,24.80
2018-04-17T10:18:36.850Z,25.40
2018-04-17T10:21:05.870Z,25.70
2018-04-17T10:23:33.419Z,25.70
2018-04-17T10:26:00.935Z,25.70
2018-04-17T10:28:28.462Z,25.10
2018-04-17T10:30:55.992Z,24.90
2018-04-17T10:33:23.527Z,25.70
2018-04-17T10:35:51.817Z,26.30
2018-04-17T10:38:20.147Z,26.20
2018-04-17T10:40:47.646Z,26.20
2018-04-17T10:43:15.942Z,26.70
2018-04-17T10:45:43.487Z,26.70
2018-04-17T10:48:11.773Z,26.70
2018-04-17T10:50:40.083Z,26.90
2018-04-17T10:53:08.404Z,26.90
2018-04-17T10:55:35.938Z,27.20
2018-04-17T10:58:03.786Z,27.60
2018-04-17T11:00:31.295Z,28.10
2018-04-17T11:02:59.596Z,27.20
2018-04-17T11:05:27.179Z,27.20
2018-04-17T11:07:54.726Z,27.60
2018-04-17T11:10:22.276Z,27.60
2018-04-17T11:12:49.801Z,27.30
2018-04-17T11:15:17.337Z,27.00
2018-04-17T11:17:44.873Z,27.10
2018-04-17T11:20:12.389Z,27.30
2018-04-17T11:22:40.691Z,27.40
2018-04-17T11:25:08.200Z,27.40
2018-04-17T11:27:35.722Z,26.90
2018-04-17T11:30:03.252Z,26.90
2018-04-17T11:32:30.800Z,27.00
2018-04-17T11:47:58.370Z,27.00
2018-04-17T11:50:27.564Z,26.00
2018-04-17T11:52:56.554Z,26.60
2018-04-17T11:55:28.979Z,26.60
2018-04-17T11:57:56.491Z,26.50
2018-04-17T12:00:24.856Z,26.30
2018-04-17T12:02:52.404Z,26.30
2018-04-17T12:05:19.940Z,26.80
2018-04-17T12:07:47.457Z,27.00
2018-04-17T12:10:15.017Z,27.00
2018-04-17T12:12:43.263Z,26.40
2018-04-17T12:15:10.806Z,26.40
2018-04-17T12:17:38.346Z,26.30
2018-04-17T12:20:05.879Z,26.50
2018-04-17T12:22:33.415Z,26.20
2018-04-17T12:25:01.911Z,27.20
2018-04-17T12:27:29.461Z,27.20
2018-04-17T12:29:57.730Z,27.20
2018-04-17T12:32:26.047Z,26.90
2018-04-17T12:34:53.585Z,26.90
2018-04-17T12:37:21.120Z,26.70
2018-04-17T12:39:48.644Z,26.80
2018-04-17T12:42:16.201Z,26.70
2018-04-17T12:44:43.739Z,26.80
2018-04-17T12:47:11.257Z,27.00
2018-04-17T12:49:38.803Z,27.30
2018-04-17T12:52:06.321Z,27.60
2018-04-17T12:54:34.907Z,27.00
2018-04-17T12:57:02.435Z,26.50
2018-04-17T12:59:30.733Z,26.00
2018-04-17T13:01:58.256Z,26.00
2018-04-17T13:04:25.796Z,26.30
2018-04-17T13:06:53.316Z,26.60
2018-04-17T13:09:21.428Z,26.70
2018-04-17T13:11:48.984Z,25.70
2018-04-17T13:14:17.146Z,24.80
2018-04-17T13:16:44.731Z,24.90
2018-04-17T13:19:12.256Z,25.40
2018-04-17T13:21:39.773Z,25.50
2018-04-17T13:24:08.095Z,25.40
2018-04-17T13:26:36.604Z,25.40
2018-04-17T13:29:04.111Z,25.40
2018-04-17T13:31:31.636Z,26.00
2018-04-17T13:34:00.561Z,26.40
2018-04-17T13:36:28.155Z,26.40
2018-04-17T13:38:55.659Z,26.30
2018-04-17T13:41:23.950Z,27.90
2018-04-17T13:43:51.476Z,27.90
2018-04-17T13:46:19.032Z,28.30
2018-04-17T13:48:46.580Z,28.50
2018-04-17T13:51:14.121Z,29.00
2018-04-17T13:53:41.643Z,30.30
2018-04-17T13:56:09.931Z,31.20
2018-04-17T13:58:37.474Z,31.20
2018-04-17T14:01:05.761Z,31.40
2018-04-17T14:03:34.064Z,30.70
2018-04-17T14:06:01.614Z,30.60
2018-04-17T14:08:29.915Z,31.80
2018-04-17T14:10:57.427Z,31.80
2018-04-17T14:13:25.756Z,32.40
2018-04-17T14:15:53.300Z,32.30
2018-04-17T14:18:20.953Z,33.00
2018-04-17T14:20:48.509Z,32.90
2018-04-17T14:23:16.153Z,32.20
2018-04-17T14:25:44.440Z,29.80
2018-04-17T14:28:11.965Z,29.70
2018-04-17T14:30:39.490Z,30.10
2018-04-17T14:33:07.020Z,30.40
2018-04-17T14:35:34.543Z,29.90
2018-04-17T14:38:02.556Z,29.70
2018-04-17T14:40:30.423Z,29.90
2018-04-17T14:42:58.004Z,30.10
2018-04-17T14:45:25.524Z,29.30
2018-04-17T14:47:53.916Z,28.90
2018-04-17T14:50:21.533Z,28.90
2018-04-17T14:52:49.054Z,29.10
2018-04-17T14:55:16.616Z,29.20
2018-04-17T14:57:44.204Z,28.90
2018-04-17T15:00:11.780Z,28.70
2018-04-17T15:02:39.332Z,28.70
2018-04-17T15:05:07.675Z,28.60
2018-04-17T15:07:35.206Z,28.10
2018-04-17T15:10:03.491Z,28.20
2018-04-17T15:12:31.028Z,28.20
2018-04-17T15:14:59.328Z,27.50
2018-04-17T15:17:27.632Z,27.40
2018-04-17T15:19:55.165Z,27.30
2018-04-17T15:22:22.899Z,27.40
2018-04-17T15:24:51.203Z,27.30
2018-04-17T15:27:19.491Z,27.00
2018-04-17T15:29:46.999Z,27.00
2018-04-17T15:32:14.512Z,27.30
2018-04-17T15:34:42.067Z,27.60
2018-04-17T15:37:10.047Z,27.50
2018-04-17T15:39:43.667Z,27.40
2018-04-17T15:42:11.320Z,27.80
2018-04-17T15:44:39.557Z,28.20
2018-04-17T15:47:07.848Z,29.70
2018-04-17T15:49:35.430Z,29.80
2018-04-17T15:52:02.943Z,30.20
2018-04-17T15:54:30.485Z,30.10
2018-04-17T15:56:58.424Z,28.50
2018-04-17T15:59:25.944Z,26.80
2018-04-17T16:01:54.300Z,25.30
2018-04-17T16:04:21.896Z,25.30
2018-04-17T16:06:49.508Z,24.90
2018-04-17T16:09:17.068Z,24.60
2018-04-17T16:11:44.619Z,24.10
2018-04-17T16:14:12.588Z,23.60
2018-04-17T16:16:40.851Z,23.20
2018-04-17T16:19:08.446Z,22.70
2018-04-17T16:21:36.003Z,22.50
2018-04-17T16:24:03.601Z,22.50
2018-04-17T16:26:32.431Z,22.30
2018-04-17T16:29:00.872Z,22.30
2018-04-17T16:31:29.195Z,21.80
2018-04-17T16:33:56.720Z,21.80
2018-04-17T16:36:24.240Z,21.70
2018-04-17T16:38:51.780Z,21.80
2018-04-17T16:41:19.305Z,21.90
2018-04-17T16:43:47.384Z,21.90
2018-04-17T16:46:14.962Z,22.00
2018-04-17T16:48:42.532Z,22.20
2018-04-17T16:51:10.074Z,22.10
2018-04-17T16:53:37.629Z,22.10
2018-04-17T16:56:05.159Z,22.10
2018-04-17T16:58:33.477Z,22.10
2018-04-17T17:01:01.025Z,22.10
2018-04-17T17:03:28.664Z,22.10
2018-04-17T17:05:56.251Z,22.10
2018-04-17T17:08:23.773Z,22.10
2018-04-17T17:10:52.088Z,21.90
2018-04-17T17:13:19.634Z,21.80
2018-04-17T17:15:47.200Z,21.90
2018-04-17T17:18:14.733Z,21.90
2018-04-17T17:20:43.061Z,21.80
2018-04-17T17:23:10.614Z,21.80
2018-04-17T17:25:38.319Z,21.80
2018-04-17T17:28:07.575Z,21.70
2018-04-17T17:30:35.100Z,21.60
2018-04-17T17:33:02.648Z,21.60
2018-04-17T17:35:31.368Z,21.60
2018-04-17T17:37:58.895Z,21.60
2018-04-17T17:40:27.872Z,21.50
2018-04-17T17:42:56.359Z,21.40
2018-04-17T17:45:24.681Z,21.30
2018-04-17T17:47:52.227Z,21.30
2018-04-17T17:50:19.765Z,21.30
2018-04-17T17:52:48.071Z,21.10
2018-04-17T17:55:15.574Z,21.10
2018-04-17T17:57:43.146Z,21.10
2018-04-17T18:00:10.676Z,21.10
2018-04-17T18:02:38.234Z,21.00
2018-04-17T18:05:05.779Z,20.90
2018-04-17T18:07:33.288Z,20.80
2018-04-17T18:10:00.838Z,20.70
2018-04-17T18:12:28.361Z,20.70
2018-04-17T18:14:55.932Z,20.60
2018-04-17T18:17:23.466Z,20.60
2018-04-17T18:19:51.007Z,20.50
2018-04-17T18:22:19.334Z,20.30
2018-04-17T18:24:46.898Z,20.30
2018-04-17T18:27:15.027Z,20.30
2018-04-17T18:29:42.577Z,20.40
2018-04-17T18:32:10.904Z,20.40
2018-04-17T18:34:38.595Z,20.30
2018-04-17T18:37:06.835Z,20.30
2018-04-17T18:39:34.409Z,20.30
2018-04-17T18:42:02.257Z,20.10
2018-04-17T18:44:30.519Z,20.00
2018-04-17T18:46:58.084Z,20.00
2018-04-17T18:49:25.607Z,19.90
2018-04-17T18:51:53.912Z,19.80
2018-04-17T18:54:21.446Z,19.80
2018-04-17T18:56:49.791Z,19.80
2018-04-17T18:59:17.357Z,19.80
2018-04-17T19:01:45.047Z,19.80
2018-04-17T19:04:13.373Z,19.70
2018-04-17T19:06:40.921Z,19.70
2018-04-17T19:09:09.539Z,19.60
2018-04-17T19:11:37.060Z,19.50
2018-04-17T19:14:04.583Z,19.50
2018-04-17T19:16:32.889Z,19.60
2018-04-17T19:19:00.433Z,19.60
2018-04-17T19:31:16.823Z,19.60
2018-04-17T19:33:44.611Z,18.60
2018-04-17T19:36:16.249Z,18.60
2018-04-17T19:38:44.204Z,18.60
2018-04-17T19:41:11.780Z,18.70
2018-04-17T19:43:39.344Z,18.90
2018-04-17T19:46:06.946Z,18.90
2018-04-17T19:48:34.484Z,18.90
2018-04-17T19:51:02.024Z,18.90
2018-04-17T19:53:29.807Z,18.90
2018-04-17T19:55:57.334Z,18.70
2018-04-17T19:58:25.156Z,18.70
2018-04-17T20:00:52.687Z,18.80
2018-04-17T20:03:20.291Z,18.80
2018-04-17T20:05:49.526Z,18.60
2018-04-17T20:08:18.021Z,18.60
2018-04-17T20:10:45.573Z,18.60
2018-04-17T20:13:13.133Z,18.50
2018-04-17T20:15:40.687Z,18.50
2018-04-17T20:18:08.232Z,18.40
2018-04-17T20:20:36.500Z,18.30
2018-04-17T20:23:04.034Z,18.30
2018-04-17T20:25:32.259Z,18.20
2018-04-17T20:27:59.788Z,18.20
2018-04-17T20:30:28.145Z,18.20
2018-04-17T20:32:55.863Z,18.20
2018-04-17T20:35:23.434Z,18.10
2018-04-17T20:37:51.135Z,18.00
2018-04-17T20:40:18.682Z,18.00
2018-04-17T20:42:46.266Z,18.00
2018-04-17T20:45:15.092Z,18.00
2018-04-17T20:47:42.662Z,18.00
2018-04-17T20:50:10.234Z,18.00
2018-04-17T20:52:37.906Z,18.00
2018-04-17T20:55:06.211Z,17.90
2018-04-17T20:57:34.263Z,17.90
2018-04-17T21:00:01.813Z,17.90
2018-04-17T21:02:30.217Z,17.80
2018-04-17T21:04:57.761Z,17.80
2018-04-17T21:07:25.323Z,17.70
2018-04-17T21:09:52.848Z,17.60
2018-04-17T21:12:20.532Z,17.60
2018-04-17T21:14:48.065Z,17.50
2018-04-17T21:17:15.609Z,17.50
2018-04-17T21:19:43.164Z,17.40
2018-04-17T21:22:11.774Z,17.30
2018-04-17T21:24:39.316Z,17.30
2018-04-17T21:27:06.843Z,17.30
2018-04-17T21:29:34.398Z,17.20
2018-04-17T21:32:01.952Z,17.10
2018-04-17T21:34:29.489Z,17.10
2018-04-17T21:36:57.042Z,17.00
2018-04-17T21:39:24.615Z,16.90
2018-04-17T21:41:52.220Z,16.80
2018-04-17T21:44:21.052Z,16.70
2018-04-17T21:46:49.026Z,16.60
2018-04-17T21:49:16.544Z,16.60
2018-04-17T21:51:45.425Z,16.40
2018-04-17T21:54:13.721Z,16.30
2018-04-17T21:56:41.276Z,16.30
2018-04-17T21:59:09.573Z,16.10
2018-04-17T22:01:37.771Z,16.10
2018-04-17T22:04:05.316Z,16.10
2018-04-17T22:06:32.948Z,16.10
2018-04-17T22:09:01.257Z,16.00
2018-04-17T22:11:28.786Z,16.00
2018-04-17T22:13:57.563Z,16.00
2018-04-17T22:16:25.858Z,16.00
2018-04-17T22:18:54.237Z,16.00
2018-04-17T22:21:21.778Z,16.10
2018-04-17T22:23:50.072Z,16.20
2018-04-17T22:26:18.416Z,16.10
2018-04-17T22:28:45.964Z,16.10
2018-04-17T22:31:13.492Z,16.10
2018-04-17T22:33:41.008Z,16.20
2018-04-17T22:36:09.433Z,16.20
2018-04-17T22:38:37.468Z,16.10
2018-04-17T22:41:05.751Z,16.20
2018-04-17T22:43:34.047Z,16.30
2018-04-17T22:46:01.660Z,16.20
2018-04-17T22:48:29.206Z,16.00
2018-04-17T22:50:56.723Z,15.70
2018-04-17T22:53:24.250Z,15.70
2018-04-17T22:55:52.589Z,15.70
2018-04-17T22:58:20.144Z,15.70
2018-04-17T23:00:47.677Z,15.80
2018-04-17T23:03:15.211Z,15.80
2018-04-17T23:05:42.730Z,15.70
2018-04-17T23:08:10.265Z,15.40
2018-04-17T23:10:37.809Z,15.50
2018-04-17T23:13:05.354Z,15.40
2018-04-17T23:15:33.649Z,15.60
2018-04-17T23:18:01.182Z,15.60
2018-04-17T23:20:28.732Z,15.70
2018-04-17T23:22:56.244Z,15.50
2018-04-17T23:25:23.786Z,15.60
2018-04-17T23:27:51.315Z,15.40
2018-04-17T23:30:18.831Z,15.30
2018-04-17T23:32:46.412Z,15.20
2018-04-17T23:35:14.002Z,15.00
2018-04-17T23:37:41.548Z,14.80
2018-04-17T23:40:09.629Z,14.70
2018-04-17T23:42:37.179Z,14.80
2018-04-17T23:45:04.708Z,14.90
2018-04-17T23:47:32.227Z,14.90
2018-04-17T23:50:00.530Z,14.90
2018-04-17T23:52:28.148Z,14.90
2018-04-17T23:54:56.607Z,14.90
2018-04-17T23:57:24.224Z,14.80
2018-04-17T23:59:51.853Z,14.80
